Time;durP1;ratioP1;P1;durP2;ratioP2;P2;SDS_P1;SDS_P2;PMS_P1;PMS_P2;Temp;Humidity;BMP_temperature;BMP_pressure;BME280_temperature;BME280_humidity;BME280_pressure;Samples;Min_cycle;Max_cycle;Signal;HPM_P1;HPM_P2
2023/02/26 00:01:28;;;;;;;13.20;3.22;;;0.10;99.90;;;;;;6218395;23;20436;-89
2023/02/26 00:03:56;;;;;;;20.88;3.83;;;0.20;99.90;;;;;;6218377;23;20011;-88
2023/02/26 00:06:24;;;;;;;11.52;3.08;;;0.20;99.90;;;;;;6217817;23;19996;-88
2023/02/26 00:08:49;;;;;;;17.60;4.25;;;0.30;99.90;;;;;;6244786;23;20012;-88
2023/02/26 00:11:15;;;;;;;18.70;3.15;;;0.40;99.90;;;;;;6217241;23;20312;-88
2023/02/26 00:13:43;;;;;;;12.02;2.83;;;0.50;99.90;;;;;;6218379;22;20004;-88
2023/02/26 00:16:26;;;;;;;13.27;2.42;;;0.50;99.90;;;;;;6244563;23;20046;-88
2023/02/26 00:18:53;;;;;;;12.13;2.42;;;0.50;99.90;;;;;;6218049;23;20004;-88
2023/02/26 00:21:20;;;;;;;8.23;1.70;;;0.50;99.90;;;;;;6217576;23;20031;-89
2023/02/26 00:23:46;;;;;;;12.07;2.25;;;0.60;99.90;;;;;;6218078;23;20005;-89
2023/02/26 00:26:11;;;;;;;12.55;1.55;;;0.60;99.90;;;;;;6244279;23;20042;-89
2023/02/26 00:28:37;;;;;;;11.90;2.20;;;0.50;99.90;;;;;;6218070;23;20513;-88
2023/02/26 00:31:04;;;;;;;7.60;2.00;;;0.50;99.90;;;;;;6217509;23;20342;-88
2023/02/26 00:33:29;;;;;;;6.47;1.42;;;0.40;99.90;;;;;;6218064;23;20004;-89
2023/02/26 00:36:07;;;;;;;5.93;1.40;;;0.40;99.90;;;;;;6244842;23;20011;-88
2023/02/26 00:38:35;;;;;;;11.43;2.80;;;0.30;99.90;;;;;;6217288;23;20443;-88
2023/02/26 00:41:00;;;;;;;7.70;1.73;;;0.20;99.90;;;;;;6217556;23;20430;-89
2023/02/26 00:43:26;;;;;;;7.63;1.08;;;0.20;99.90;;;;;;6217799;23;20035;-89
2023/02/26 00:46:24;;;;;;;12.45;1.40;;;0.20;99.90;;;;;;6244847;23;20103;-89
2023/02/26 00:49:31;;;;;;;5.75;0.70;;;0.20;99.90;;;;;;6244203;23;20008;-89
2023/02/26 00:52:05;;;;;;;11.35;1.60;;;0.20;99.90;;;;;;6217989;23;20003;-88
2023/02/26 00:54:31;;;;;;;6.38;0.77;;;0.20;99.90;;;;;;6244706;23;20053;-89
2023/02/26 00:56:58;;;;;;;8.65;1.25;;;0.20;99.90;;;;;;6244969;23;20036;-88
2023/02/26 00:59:25;;;;;;;8.88;1.65;;;0.20;99.90;;;;;;6244098;23;20024;-89
2023/02/26 01:01:51;;;;;;;10.50;0.88;;;0.20;99.90;;;;;;6245078;23;20363;-89
2023/02/26 01:04:20;;;;;;;4.47;0.55;;;0.20;99.90;;;;;;6217251;23;20043;-88
2023/02/26 01:06:52;;;;;;;2.65;0.70;;;0.20;99.90;;;;;;6217991;23;20036;-89
2023/02/26 01:09:33;;;;;;;8.73;0.80;;;0.20;99.90;;;;;;6217781;23;20462;-89
2023/02/26 01:12:02;;;;;;;8.30;0.65;;;0.20;99.90;;;;;;6245202;23;19997;-88
2023/02/26 01:14:30;;;;;;;8.38;0.68;;;0.20;99.90;;;;;;6244982;23;20008;-89
2023/02/26 01:17:12;;;;;;;4.40;1.05;;;0.20;99.90;;;;;;6219317;23;20007;-88
2023/02/26 01:19:49;;;;;;;9.18;0.73;;;0.20;99.90;;;;;;6219081;23;20031;-89
2023/02/26 01:22:42;;;;;;;5.32;0.50;;;0.10;99.90;;;;;;6219318;23;20007;-89
2023/02/26 01:25:11;;;;;;;7.20;0.60;;;0.10;99.90;;;;;;6219841;23;20319;-89
2023/02/26 01:27:37;;;;;;;13.60;0.60;;;0.10;99.90;;;;;;6218909;23;20011;-89
2023/02/26 01:30:06;;;;;;;3.55;0.93;;;0.10;99.90;;;;;;6219713;23;20008;-89
2023/02/26 01:32:45;;;;;;;8.80;0.80;;;0.10;99.90;;;;;;6219937;23;19997;-89
2023/02/26 01:35:53;;;;;;;8.30;0.57;;;0.10;99.90;;;;;;6219507;23;20035;-89
2023/02/26 01:38:54;;;;;;;6.38;0.88;;;0.10;99.90;;;;;;6176227;23;20015;-89
2023/02/26 01:41:37;;;;;;;5.20;0.80;;;0.10;99.90;;;;;;6240406;23;20004;-89
2023/02/26 01:44:32;;;;;;;2.85;0.57;;;0.10;99.90;;;;;;6219078;23;20038;-89
2023/02/26 01:47:08;;;;;;;7.40;0.60;;;0.10;99.90;;;;;;6205672;23;20008;-89
2023/02/26 01:49:33;;;;;;;4.40;0.50;;;0.10;99.90;;;;;;6246210;23;20060;-89
2023/02/26 01:52:04;;;;;;;4.63;0.50;;;0.00;99.90;;;;;;6219153;23;20000;-90
2023/02/26 01:54:32;;;;;;;4.72;0.50;;;0.00;99.90;;;;;;6219783;23;20083;-89
2023/02/26 01:57:03;;;;;;;5.15;0.60;;;0.00;99.90;;;;;;6219169;23;20343;-89
2023/02/26 01:59:31;;;;;;;6.47;0.40;;;0.00;99.90;;;;;;6219575;23;20105;-90
2023/02/26 02:01:58;;;;;;;6.82;0.60;;;-0.10;99.90;;;;;;6245802;23;20000;-89
2023/02/26 02:04:25;;;;;;;2.88;0.40;;;-0.10;99.90;;;;;;6219878;23;20036;-89
2023/02/26 02:06:52;;;;;;;7.68;0.60;;;-0.10;99.90;;;;;;6219469;23;20058;-88
2023/02/26 02:09:18;;;;;;;6.47;0.40;;;-0.10;99.90;;;;;;6218604;23;20069;-89
2023/02/26 02:11:56;;;;;;;3.90;0.50;;;-0.10;99.90;;;;;;6219428;23;20004;-89
2023/02/26 02:14:46;;;;;;;5.38;0.73;;;-0.20;99.90;;;;;;6218698;23;20342;-89
2023/02/26 02:17:17;;;;;;;5.88;0.98;;;-0.10;99.90;;;;;;6219094;23;20003;-89
2023/02/26 02:20:15;;;;;;;7.55;0.68;;;-0.20;99.90;;;;;;6219005;23;20346;-89
2023/02/26 02:23:07;;;;;;;10.30;1.17;;;-0.20;99.90;;;;;;6219432;23;20011;-89
2023/02/26 02:26:09;;;;;;;5.32;0.60;;;-0.20;99.90;;;;;;6219287;23;20047;-89
2023/02/26 02:28:53;;;;;;;3.35;1.20;;;-0.30;99.90;;;;;;6218863;23;20110;-88
2023/02/26 02:31:27;;;;;;;9.25;0.90;;;-0.30;99.90;;;;;;6218264;23;19997;-89
2023/02/26 02:34:14;;;;;;;3.75;0.40;;;-0.40;99.90;;;;;;6218391;23;20000;-89
2023/02/26 02:37:06;;;;;;;7.45;0.88;;;-0.40;99.90;;;;;;6219229;23;19996;-89
2023/02/26 02:39:45;;;;;;;5.55;0.68;;;-0.40;99.90;;;;;;6197576;23;20034;-89
2023/02/26 02:42:31;;;;;;;7.53;0.70;;;-0.40;99.90;;;;;;6218444;23;20008;-88
2023/02/26 02:45:38;;;;;;;5.63;0.93;;;-0.40;99.90;;;;;;6218802;23;20008;-88
2023/02/26 02:48:25;;;;;;;5.80;0.50;;;-0.40;99.90;;;;;;6122786;23;20436;-88
2023/02/26 02:51:08;;;;;;;6.68;0.50;;;-0.40;99.90;;;;;;6122819;23;20020;-88
2023/02/26 02:53:41;;;;;;;3.22;0.40;;;-0.40;99.90;;;;;;6215257;23;20015;-89
2023/02/26 02:56:16;;;;;;;5.03;0.50;;;-0.40;99.90;;;;;;6218323;23;20040;-88
2023/02/26 02:58:50;;;;;;;7.90;0.50;;;-0.40;99.90;;;;;;6245267;23;20316;-88
2023/02/26 03:01:18;;;;;;;6.93;0.63;;;-0.40;99.90;;;;;;6245576;23;19997;-88
2023/02/26 03:03:58;;;;;;;5.28;0.50;;;-0.40;99.90;;;;;;6245236;23;20019;-89
2023/02/26 03:06:24;;;;;;;8.73;0.70;;;-0.40;99.90;;;;;;6217824;23;20091;-89
2023/02/26 03:08:51;;;;;;;9.10;1.77;;;-0.40;99.90;;;;;;6218323;23;20342;-89
2023/02/26 03:11:17;;;;;;;6.93;0.60;;;-0.40;99.90;;;;;;6217625;23;20115;-89
2023/02/26 03:13:43;;;;;;;10.10;0.70;;;-0.50;99.90;;;;;;6218743;23;20004;-89
2023/02/26 03:16:47;;;;;;;9.13;0.50;;;-0.50;99.90;;;;;;6218032;23;20000;-89
2023/02/26 03:19:28;;;;;;;3.85;0.50;;;-0.50;99.90;;;;;;6217528;23;20020;-88
2023/02/26 03:22:05;;;;;;;7.25;0.50;;;-0.60;99.90;;;;;;6218186;23;20027;-88
2023/02/26 03:24:39;;;;;;;8.52;0.35;;;-0.60;99.90;;;;;;6220310;23;20007;-89
2023/02/26 03:27:20;;;;;;;7.60;0.90;;;-0.60;99.90;;;;;;6220008;23;20082;-89
2023/02/26 03:30:03;;;;;;;5.82;0.50;;;-0.60;99.90;;;;;;6218590;23;20532;-89
2023/02/26 03:32:50;;;;;;;1.98;0.45;;;-0.60;99.90;;;;;;6219612;23;20311;-89
2023/02/26 03:35:37;;;;;;;5.28;0.50;;;-0.60;99.90;;;;;;6218373;23;20002;-88
2023/02/26 03:38:07;;;;;;;7.95;0.40;;;-0.60;99.90;;;;;;6217804;23;20001;-88
2023/02/26 03:41:05;;;;;;;7.00;0.35;;;-0.60;99.90;;;;;;6218284;23;20077;-89
2023/02/26 03:43:57;;;;;;;5.22;0.40;;;-0.70;99.90;;;;;;6218593;23;20438;-88
2023/02/26 03:46:31;;;;;;;5.63;0.30;;;-0.70;99.90;;;;;;6218015;23;20014;-88
2023/02/26 03:49:02;;;;;;;4.20;0.40;;;-0.70;99.90;;;;;;6217803;23;20150;-89
2023/02/26 03:51:29;;;;;;;4.75;0.40;;;-0.80;99.90;;;;;;6218028;23;20011;-87
2023/02/26 03:54:11;;;;;;;5.47;1.05;;;-0.80;99.90;;;;;;6218324;23;20083;-89
2023/02/26 03:56:40;;;;;;;;;;;-0.80;99.90;;;;;;6218900;23;20004;-88
2023/02/26 03:59:06;;;;;;;6.38;0.40;;;-0.80;99.90;;;;;;6217727;23;19899;-88
2023/02/26 04:01:47;;;;;;;5.97;0.40;;;-0.90;99.90;;;;;;6219142;23;20031;-88
2023/02/26 04:04:45;;;;;;;8.00;0.52;;;-0.80;99.90;;;;;;6217019;23;20036;-88
2023/02/26 04:07:13;;;;;;;5.40;0.30;;;-0.90;99.90;;;;;;6233748;23;20000;-88
2023/02/26 04:09:47;;;;;;;4.95;0.40;;;-0.90;99.90;;;;;;6218100;23;20026;-88
2023/02/26 04:12:13;;;;;;;6.70;1.63;;;-0.90;99.90;;;;;;6244320;23;20078;-88
2023/02/26 04:14:38;;;;;;;5.70;0.50;;;-0.90;99.90;;;;;;6243579;23;20434;-88
2023/02/26 04:17:05;;;;;;;2.80;0.30;;;-0.90;99.90;;;;;;6244257;23;19996;-88
2023/02/26 04:19:30;;;;;;;3.47;0.30;;;-1.00;99.90;;;;;;6217754;23;20020;-88
2023/02/26 04:21:56;;;;;;;2.83;0.50;;;-1.00;99.90;;;;;;6244750;23;20015;-89
2023/02/26 04:24:22;;;;;;;5.10;0.98;;;-1.00;99.90;;;;;;6244555;23;20078;-87
2023/02/26 04:26:47;;;;;;;7.40;0.30;;;-1.00;99.90;;;;;;6217978;23;20008;-88
2023/02/26 04:29:13;;;;;;;6.82;0.40;;;-1.10;99.90;;;;;;6216565;23;20020;-88
2023/02/26 04:31:39;;;;;;;3.78;0.40;;;-1.10;99.90;;;;;;6244621;23;20001;-87
2023/02/26 04:34:04;;;;;;;4.25;0.30;;;-1.00;99.90;;;;;;6244500;23;20011;-88
2023/02/26 04:36:30;;;;;;;1.75;0.20;;;-1.00;99.90;;;;;;6218092;23;19997;-88
2023/02/26 04:38:55;;;;;;;7.75;0.52;;;-1.10;99.90;;;;;;6217879;23;20083;-86
2023/02/26 04:41:21;;;;;;;2.83;0.28;;;-1.10;99.90;;;;;;6244491;23;20004;-87
2023/02/26 04:43:47;;;;;;;9.43;0.80;;;-1.10;99.90;;;;;;6217344;23;20036;-87
2023/02/26 04:46:12;;;;;;;3.13;0.40;;;-1.10;99.90;;;;;;6217539;23;20000;-88
2023/02/26 04:48:38;;;;;;;4.82;0.22;;;-1.20;99.90;;;;;;6217441;23;20024;-88
2023/02/26 04:51:03;;;;;;;8.95;0.75;;;-1.20;99.90;;;;;;6218753;23;20000;-87
2023/02/26 04:53:29;;;;;;;5.63;1.23;;;-1.20;99.90;;;;;;6246183;22;20004;-88
2023/02/26 04:55:55;;;;;;;3.67;0.40;;;-1.20;99.90;;;;;;6216971;23;20447;-88
2023/02/26 04:58:20;;;;;;;6.78;0.40;;;-1.20;99.90;;;;;;6217986;23;20561;-88
2023/02/26 05:00:50;;;;;;;7.13;1.02;;;-1.20;99.90;;;;;;6218081;23;20008;-87
2023/02/26 05:03:17;;;;;;;3.15;0.35;;;-1.20;99.90;;;;;;6217251;22;20004;-88
2023/02/26 05:05:43;;;;;;;3.80;0.30;;;-1.20;99.90;;;;;;6218888;23;20000;-87
2023/02/26 05:08:09;;;;;;;4.53;0.40;;;-1.20;99.90;;;;;;6218510;23;20015;-88
2023/02/26 05:10:35;;;;;;;6.60;0.30;;;-1.20;99.90;;;;;;6218692;23;20426;-87
2023/02/26 05:13:00;;;;;;;8.90;0.22;;;-1.20;99.90;;;;;;6219131;23;20058;-88
2023/02/26 05:15:26;;;;;;;6.68;0.32;;;-1.30;99.90;;;;;;6217764;23;20000;-88
2023/02/26 05:17:51;;;;;;;4.15;0.30;;;-1.20;99.90;;;;;;6218968;23;20004;-88
2023/02/26 05:20:17;;;;;;;9.27;0.55;;;-1.30;99.90;;;;;;6218083;23;20016;-88
2023/02/26 05:22:42;;;;;;;6.25;0.30;;;-1.30;99.90;;;;;;6219264;23;20004;-88
2023/02/26 05:25:11;;;;;;;2.17;0.25;;;-1.30;99.90;;;;;;6218258;23;20000;-87
2023/02/26 05:27:36;;;;;;;1.75;0.30;;;-1.30;99.90;;;;;;6219416;23;20004;-88
2023/02/26 05:30:03;;;;;;;6.72;0.40;;;-1.20;99.90;;;;;;6217945;23;20012;-87
2023/02/26 05:32:28;;;;;;;3.90;0.30;;;-1.20;99.90;;;;;;6218791;23;20031;-87
2023/02/26 05:34:54;;;;;;;10.10;0.50;;;-1.20;99.90;;;;;;6218823;23;20347;-87
2023/02/26 05:37:19;;;;;;;2.70;0.20;;;-1.30;99.90;;;;;;6218561;23;20011;-87
2023/02/26 05:39:45;;;;;;;5.03;0.30;;;-1.30;99.90;;;;;;6218564;23;20016;-87
2023/02/26 05:42:10;;;;;;;2.20;0.30;;;-1.30;99.90;;;;;;6218100;23;20015;-88
2023/02/26 05:44:36;;;;;;;1.27;0.20;;;-1.30;99.90;;;;;;6216879;23;20001;-87
2023/02/26 05:47:02;;;;;;;6.43;0.50;;;-1.40;99.90;;;;;;6218134;23;20000;-88
2023/02/26 05:49:27;;;;;;;6.45;0.30;;;-1.40;99.90;;;;;;6218052;23;20020;-87
2023/02/26 05:51:53;;;;;;;6.38;0.25;;;-1.40;99.90;;;;;;6217987;23;20046;-87
2023/02/26 05:54:18;;;;;;;4.63;0.45;;;-1.50;99.90;;;;;;6218565;23;20120;-87
2023/02/26 05:56:44;;;;;;;2.30;0.20;;;-1.50;99.90;;;;;;6217079;23;20015;-88
2023/02/26 05:59:09;;;;;;;5.10;0.50;;;-1.50;99.90;;;;;;6217454;23;20031;-88
2023/02/26 06:01:38;;;;;;;1.52;0.20;;;-1.50;99.90;;;;;;6218557;23;20338;-87
2023/02/26 06:04:05;;;;;;;5.80;1.13;;;-1.50;99.90;;;;;;6217549;23;20004;-87
2023/02/26 06:06:31;;;;;;;4.78;1.70;;;-1.60;99.90;;;;;;6222329;23;20054;-87
2023/02/26 06:08:57;;;;;;;4.75;0.30;;;-1.60;99.90;;;;;;6227401;23;20042;-88
2023/02/26 06:11:23;;;;;;;4.05;0.40;;;-1.60;99.90;;;;;;6221963;23;20038;-88
2023/02/26 06:13:48;;;;;;;7.25;0.30;;;-1.60;99.90;;;;;;6245632;23;20015;-87
2023/02/26 06:16:14;;;;;;;8.35;2.05;;;-1.60;99.90;;;;;;6218933;23;20023;-87
2023/02/26 06:18:40;;;;;;;4.35;0.30;;;-1.70;99.90;;;;;;6218219;23;20036;-87
2023/02/26 06:21:05;;;;;;;2.83;0.30;;;-1.70;99.90;;;;;;6244077;22;20019;-87
2023/02/26 06:23:31;;;;;;;4.30;0.25;;;-1.70;99.90;;;;;;6245751;22;20008;-88
2023/02/26 06:25:58;;;;;;;2.65;0.50;;;-1.70;99.90;;;;;;6219089;23;20474;-87
2023/02/26 06:28:25;;;;;;;6.72;0.43;;;-1.70;99.90;;;;;;6218220;23;20019;-87
2023/02/26 06:30:51;;;;;;;2.33;0.20;;;-1.70;99.90;;;;;;6217020;22;20397;-87
2023/02/26 06:33:17;;;;;;;3.35;0.30;;;-1.70;99.90;;;;;;6218598;23;20067;-87
2023/02/26 06:35:42;;;;;;;3.95;0.30;;;-1.80;99.90;;;;;;6219503;23;20004;-87
2023/02/26 06:38:08;;;;;;;4.72;0.50;;;-1.80;99.90;;;;;;6245438;23;20084;-87
2023/02/26 06:40:33;;;;;;;3.40;0.30;;;-1.80;99.90;;;;;;6218986;23;20503;-87
2023/02/26 06:42:59;;;;;;;4.05;0.30;;;-1.80;99.90;;;;;;6217791;23;20004;-88
2023/02/26 06:45:25;;;;;;;1.73;0.20;;;-1.80;99.90;;;;;;6216947;22;20004;-87
2023/02/26 06:47:51;;;;;;;3.38;0.85;;;-1.80;99.90;;;;;;6216733;23;20054;-87
2023/02/26 06:50:16;;;;;;;5.93;0.40;;;-1.80;99.90;;;;;;6243069;23;20010;-87
2023/02/26 06:52:42;;;;;;;3.85;0.30;;;-1.80;99.90;;;;;;6216921;23;20000;-87
2023/02/26 06:55:08;;;;;;;4.05;0.30;;;-1.80;99.90;;;;;;6217166;23;20008;-87
2023/02/26 06:57:33;;;;;;;6.20;0.40;;;-1.90;99.90;;;;;;6218356;23;20316;-87
2023/02/26 06:59:59;;;;;;;5.88;0.30;;;-1.90;99.90;;;;;;6216446;22;20014;-87
2023/02/26 07:02:25;;;;;;;2.15;0.30;;;-1.80;99.90;;;;;;6243807;22;19996;-87
2023/02/26 07:04:50;;;;;;;5.13;0.45;;;-1.70;99.90;;;;;;6218303;23;20442;-88
2023/02/26 07:07:16;;;;;;;4.18;0.30;;;-1.70;99.90;;;;;;6242439;23;19999;-87
2023/02/26 07:09:42;;;;;;;4.60;0.20;;;-1.70;99.90;;;;;;6245454;23;20008;-87
2023/02/26 07:12:07;;;;;;;0.93;0.20;;;-1.70;99.90;;;;;;6216028;23;20342;-87
2023/02/26 07:14:34;;;;;;;6.50;0.50;;;-1.60;99.90;;;;;;6217320;23;20328;-88
2023/02/26 07:17:00;;;;;;;1.15;0.20;;;-1.60;99.90;;;;;;6244939;23;20422;-88
2023/02/26 07:19:26;;;;;;;2.17;0.30;;;-1.50;99.90;;;;;;6244909;23;20039;-88
2023/02/26 07:21:53;;;;;;;2.03;0.30;;;-1.50;99.90;;;;;;6219224;23;20054;-86
2023/02/26 07:24:19;;;;;;;4.07;0.22;;;-1.40;99.90;;;;;;6217941;23;20004;-86
2023/02/26 07:26:45;;;;;;;5.70;0.38;;;-1.40;99.90;;;;;;6218532;23;19996;-86
2023/02/26 07:29:11;;;;;;;2.42;0.20;;;-1.30;99.90;;;;;;6218069;23;20039;-86
2023/02/26 07:31:36;;;;;;;2.25;0.25;;;-1.30;99.90;;;;;;6217963;23;20000;-87
2023/02/26 07:34:02;;;;;;;10.05;1.58;;;-1.30;99.90;;;;;;6242655;23;20069;-86
2023/02/26 07:36:28;;;;;;;2.55;0.30;;;-1.20;99.90;;;;;;6217079;22;20061;-86
2023/02/26 07:38:53;;;;;;;2.58;0.20;;;-1.10;99.90;;;;;;6243924;23;20031;-86
2023/02/26 07:41:19;;;;;;;3.10;0.20;;;-1.00;99.90;;;;;;6216747;23;20061;-86
2023/02/26 07:43:45;;;;;;;1.98;0.40;;;-0.90;99.90;;;;;;6218281;23;20026;-86
2023/02/26 07:46:11;;;;;;;6.72;0.65;;;-0.90;99.90;;;;;;6244241;23;19996;-86
2023/02/26 07:48:36;;;;;;;1.27;0.30;;;-0.80;99.90;;;;;;6218150;23;20018;-86
2023/02/26 07:51:02;;;;;;;4.63;0.25;;;-0.70;99.90;;;;;;6216483;23;20088;-86
2023/02/26 07:53:28;;;;;;;3.28;0.20;;;-0.70;99.90;;;;;;6218312;23;20371;-85
2023/02/26 07:55:54;;;;;;;3.40;0.30;;;-0.60;99.90;;;;;;6244191;22;20003;-86
2023/02/26 07:58:19;;;;;;;1.35;0.20;;;-0.50;99.90;;;;;;6217059;23;20423;-86
2023/02/26 08:00:45;;;;;;;2.65;0.30;;;-0.40;99.90;;;;;;6216931;23;20000;-84
2023/02/26 08:03:11;;;;;;;3.58;0.50;;;-0.30;99.90;;;;;;6216798;22;20019;-86
2023/02/26 08:05:36;;;;;;;4.13;0.28;;;-0.20;99.90;;;;;;6244452;23;20023;-86
2023/02/26 08:08:02;;;;;;;5.00;0.30;;;-0.10;99.90;;;;;;6217348;23;20004;-84
2023/02/26 08:10:28;;;;;;;3.88;0.30;;;0.00;99.90;;;;;;6217694;23;20087;-86
2023/02/26 08:12:54;;;;;;;2.15;0.30;;;0.10;99.90;;;;;;6217186;23;20441;-85
2023/02/26 08:15:19;;;;;;;5.15;0.20;;;0.20;99.90;;;;;;6216665;23;20008;-85
2023/02/26 08:17:45;;;;;;;3.53;0.20;;;0.20;99.90;;;;;;6215814;23;20427;-87
2023/02/26 08:20:13;;;;;;;2.72;0.20;;;0.30;99.90;;;;;;6215344;23;20450;-86
2023/02/26 08:22:38;;;;;;;2.72;0.20;;;0.50;99.90;;;;;;6216307;23;20035;-86
2023/02/26 08:25:04;;;;;;;4.32;0.20;;;0.60;99.90;;;;;;6242641;23;20007;-87
2023/02/26 08:27:30;;;;;;;7.43;0.47;;;0.70;99.90;;;;;;6214767;23;20019;-85
2023/02/26 08:29:55;;;;;;;0.90;0.17;;;0.80;99.90;;;;;;6217711;23;20016;-85
2023/02/26 08:32:21;;;;;;;4.38;0.32;;;1.00;99.90;;;;;;6243617;23;20004;-85
2023/02/26 08:34:47;;;;;;;3.50;0.30;;;1.10;99.90;;;;;;6216085;23;20188;-85
2023/02/26 08:37:13;;;;;;;2.90;0.30;;;1.20;99.90;;;;;;6215205;23;19996;-85
2023/02/26 08:39:39;;;;;;;2.58;0.38;;;1.30;99.90;;;;;;6243778;23;20019;-85
2023/02/26 08:42:06;;;;;;;5.70;0.40;;;1.40;99.90;;;;;;6244334;23;19993;-85
2023/02/26 08:44:32;;;;;;;4.93;0.20;;;1.40;99.90;;;;;;6216936;23;20012;-85
2023/02/26 08:46:58;;;;;;;2.38;0.20;;;1.60;99.90;;;;;;6216702;22;20004;-85
2023/02/26 08:49:24;;;;;;;6.22;0.60;;;1.70;99.90;;;;;;6241365;23;20064;-86
2023/02/26 08:51:49;;;;;;;3.25;0.20;;;1.70;99.90;;;;;;6218152;23;20434;-85
2023/02/26 08:54:15;;;;;;;3.05;0.20;;;1.80;99.90;;;;;;6217549;23;20026;-85
2023/02/26 08:56:41;;;;;;;3.08;0.25;;;1.90;99.90;;;;;;6218192;23;20004;-85
2023/02/26 08:59:08;;;;;;;1.10;0.28;;;1.90;99.90;;;;;;6217455;23;20019;-87
2023/02/26 09:01:34;;;;;;;3.03;0.55;;;2.00;99.90;;;;;;6217714;23;20007;-86
2023/02/26 09:04:00;;;;;;;1.17;0.20;;;2.00;99.90;;;;;;6218330;23;20000;-86
2023/02/26 09:06:25;;;;;;;2.28;0.35;;;2.10;99.90;;;;;;6218085;23;20008;-86
2023/02/26 09:08:51;;;;;;;3.97;0.22;;;2.10;99.90;;;;;;6217509;23;20028;-86
2023/02/26 09:11:17;;;;;;;3.40;0.65;;;2.30;99.90;;;;;;6217118;23;20011;-86
2023/02/26 09:13:42;;;;;;;3.33;1.08;;;2.30;99.90;;;;;;6215512;23;20369;-86
2023/02/26 09:16:08;;;;;;;1.15;0.15;;;2.40;99.90;;;;;;6218907;23;20422;-86
2023/02/26 09:18:34;;;;;;;4.57;0.38;;;2.40;99.90;;;;;;6218564;23;20007;-85
2023/02/26 09:21:00;;;;;;;3.15;0.28;;;2.50;99.90;;;;;;6216933;23;20012;-86
2023/02/26 09:23:25;;;;;;;1.42;0.17;;;2.50;99.90;;;;;;6218752;23;20031;-85
2023/02/26 09:25:53;;;;;;;2.92;0.20;;;2.50;99.90;;;;;;6218572;23;19997;-85
2023/02/26 09:28:19;;;;;;;3.85;0.25;;;2.60;99.90;;;;;;6218625;23;20012;-85
2023/02/26 09:30:44;;;;;;;4.05;0.38;;;2.60;99.90;;;;;;6219207;23;20458;-85
2023/02/26 09:33:10;;;;;;;3.45;0.30;;;2.60;99.90;;;;;;6217943;23;20011;-86
2023/02/26 09:35:35;;;;;;;3.28;0.30;;;2.60;99.90;;;;;;6217385;23;20014;-85
2023/02/26 09:38:02;;;;;;;2.80;0.20;;;2.70;99.90;;;;;;6220309;23;20338;-85
2023/02/26 09:40:40;;;;;;;4.22;0.25;;;2.80;99.90;;;;;;6221153;23;20441;-86
2023/02/26 09:43:20;;;;;;;4.43;0.30;;;2.80;99.90;;;;;;6220899;23;20091;-85
2023/02/26 09:45:49;;;;;;;4.50;0.22;;;2.80;99.90;;;;;;6221179;23;20483;-86
2023/02/26 09:48:19;;;;;;;3.05;0.30;;;2.80;99.90;;;;;;6219856;23;20011;-85
2023/02/26 09:50:49;;;;;;;2.00;0.20;;;2.90;99.90;;;;;;6221272;23;20004;-85
2023/02/26 09:53:33;;;;;;;2.45;0.20;;;3.00;99.90;;;;;;6220442;23;20000;-85
2023/02/26 09:56:05;;;;;;;6.25;0.32;;;3.10;99.90;;;;;;6220620;23;20008;-86
2023/02/26 09:58:34;;;;;;;1.00;0.10;;;3.00;99.90;;;;;;6219960;23;20004;-85
2023/02/26 10:01:25;;;;;;;1.65;0.20;;;3.10;99.90;;;;;;6218509;23;20011;-85
2023/02/26 10:04:07;;;;;;;0.80;0.17;;;3.20;99.90;;;;;;6220055;23;20083;-86
2023/02/26 10:06:42;;;;;;;3.92;0.20;;;3.20;99.90;;;;;;6220331;23;20012;-85
2023/02/26 10:09:24;;;;;;;1.50;0.30;;;3.30;99.20;;;;;;6220628;23;20019;-85
2023/02/26 10:12:06;;;;;;;3.17;0.40;;;3.40;99.20;;;;;;6221390;23;20001;-86
2023/02/26 10:14:57;;;;;;;5.35;0.60;;;3.40;98.20;;;;;;6220061;23;20019;-86
2023/02/26 10:17:44;;;;;;;1.42;0.20;;;3.40;97.10;;;;;;6219217;23;20473;-86
2023/02/26 10:20:19;;;;;;;1.70;0.10;;;3.40;96.20;;;;;;6221488;23;20047;-85
2023/02/26 10:23:00;;;;;;;2.85;0.20;;;3.40;95.30;;;;;;6222642;23;20312;-86
2023/02/26 10:25:46;;;;;;;1.75;0.63;;;3.40;95.00;;;;;;6220536;23;20007;-85
2023/02/26 10:28:34;;;;;;;3.72;0.10;;;3.50;95.10;;;;;;6220764;23;20000;-86
2023/02/26 10:31:12;;;;;;;3.55;0.20;;;3.50;94.20;;;;;;6220551;23;20004;-86
2023/02/26 10:33:59;;;;;;;1.65;0.17;;;3.50;94.70;;;;;;6220936;23;20381;-86
2023/02/26 10:36:33;;;;;;;1.90;0.10;;;3.60;94.50;;;;;;6219249;23;20008;-85
2023/02/26 10:39:11;;;;;;;0.73;0.20;;;3.60;93.70;;;;;;6220643;23;20053;-86
2023/02/26 10:41:36;;;;;;;1.60;0.20;;;3.60;93.70;;;;;;6220789;23;20040;-86
2023/02/26 10:44:20;;;;;;;1.63;0.20;;;3.60;94.20;;;;;;6218730;23;20023;-86
2023/02/26 10:46:51;;;;;;;1.73;0.30;;;3.70;94.20;;;;;;6219630;23;20008;-85
2023/02/26 10:49:39;;;;;;;0.82;0.10;;;3.80;93.60;;;;;;6220005;23;20523;-86
2023/02/26 10:52:13;;;;;;;0.55;0.10;;;3.90;93.30;;;;;;6219906;23;20085;-86
2023/02/26 10:54:55;;;;;;;2.50;0.20;;;3.90;92.00;;;;;;6220632;23;20418;-86
2023/02/26 10:57:28;;;;;;;0.47;0.10;;;3.90;92.40;;;;;;6220494;23;20035;-86
2023/02/26 10:59:54;;;;;;;1.88;0.20;;;4.00;92.70;;;;;;6221682;23;20239;-85
2023/02/26 11:02:48;;;;;;;4.78;0.30;;;4.10;91.70;;;;;;6219047;23;20118;-86
2023/02/26 11:05:26;;;;;;;1.27;0.20;;;4.10;90.30;;;;;;6243259;23;20426;-86
2023/02/26 11:08:00;;;;;;;1.75;0.10;;;4.20;90.90;;;;;;6220275;23;20004;-86
2023/02/26 11:10:37;;;;;;;1.67;0.20;;;4.20;90.30;;;;;;6219089;23;20114;-85
2023/02/26 11:13:03;;;;;;;1.58;0.10;;;4.30;89.80;;;;;;6219443;23;20020;-86
2023/02/26 11:15:29;;;;;;;1.95;0.20;;;4.30;90.30;;;;;;6219225;23;20011;-85
2023/02/26 11:17:57;;;;;;;5.20;0.30;;;4.40;90.70;;;;;;6219313;23;20004;-86
2023/02/26 11:20:29;;;;;;;3.20;0.20;;;4.40;90.60;;;;;;6218257;23;20016;-85
2023/02/26 11:22:58;;;;;;;3.53;0.40;;;4.60;90.60;;;;;;6219355;23;20343;-85
2023/02/26 11:25:27;;;;;;;2.25;0.30;;;4.60;90.70;;;;;;6219013;23;20000;-86
2023/02/26 11:28:05;;;;;;;5.68;0.30;;;4.70;90.80;;;;;;6219340;23;20054;-85
2023/02/26 11:30:36;;;;;;;2.00;0.43;;;4.80;90.40;;;;;;6217807;23;20097;-85
2023/02/26 11:33:23;;;;;;;2.88;0.20;;;4.70;89.80;;;;;;6218247;23;20008;-86
2023/02/26 11:35:49;;;;;;;3.03;0.32;;;4.70;89.50;;;;;;6219531;23;20024;-86
2023/02/26 11:38:24;;;;;;;1.83;0.10;;;4.70;89.70;;;;;;6219614;23;20491;-85
2023/02/26 11:40:55;;;;;;;4.70;0.40;;;4.70;89.40;;;;;;6245524;23;20007;-85
2023/02/26 11:43:23;;;;;;;3.63;0.38;;;4.80;89.40;;;;;;6219478;23;20204;-85
2023/02/26 11:45:56;;;;;;;2.42;0.28;;;4.80;87.60;;;;;;6219710;23;20004;-85
2023/02/26 11:48:25;;;;;;;1.30;0.10;;;4.80;86.90;;;;;;6217531;23;20003;-86
2023/02/26 11:50:59;;;;;;;3.60;0.17;;;4.70;85.70;;;;;;6216070;23;20058;-86
2023/02/26 11:53:33;;;;;;;1.05;0.20;;;4.70;86.50;;;;;;6215746;23;20342;-85
2023/02/26 11:56:02;;;;;;;0.80;0.20;;;4.80;86.30;;;;;;6217295;23;20090;-85
2023/02/26 11:58:33;;;;;;;3.22;0.30;;;4.80;86.50;;;;;;6218876;23;20108;-89
2023/02/26 12:01:01;;;;;;;3.47;0.70;;;4.90;86.10;;;;;;6216764;23;20001;-84
2023/02/26 12:03:28;;;;;;;2.33;0.17;;;4.90;85.30;;;;;;6244459;23;20011;-84
2023/02/26 12:05:54;;;;;;;1.15;0.20;;;4.90;84.60;;;;;;6242698;23;19996;-84
2023/02/26 12:08:28;;;;;;;0.77;0.10;;;4.90;85.30;;;;;;6216536;23;20004;-86
2023/02/26 12:11:21;;;;;;;0.77;0.20;;;5.00;86.10;;;;;;6217093;23;20087;-84
2023/02/26 12:13:59;;;;;;;2.15;0.10;;;5.10;84.60;;;;;;6246052;23;20035;-85
2023/02/26 12:16:36;;;;;;;2.50;0.20;;;5.10;84.10;;;;;;6218254;23;20004;-85
2023/02/26 12:19:28;;;;;;;1.17;0.20;;;5.10;85.10;;;;;;6217332;23;20338;-85
2023/02/26 12:22:04;;;;;;;4.00;0.20;;;5.20;84.20;;;;;;6216483;23;20343;-86
2023/02/26 12:24:53;;;;;;;0.65;0.17;;;5.20;83.80;;;;;;6216932;23;20008;-86
2023/02/26 12:27:36;;;;;;;0.88;0.10;;;5.30;83.90;;;;;;6242391;23;20000;-86
2023/02/26 12:30:06;;;;;;;3.28;0.30;;;5.30;81.10;;;;;;6215003;22;20514;-86
2023/02/26 12:32:50;;;;;;;4.07;0.20;;;5.30;79.70;;;;;;6216791;23;20005;-86
2023/02/26 12:35:30;;;;;;;1.48;0.20;;;5.30;80.00;;;;;;6216539;23;20323;-86
2023/02/26 12:38:08;;;;;;;3.17;0.22;;;5.40;80.40;;;;;;6217288;23;20446;-86
2023/02/26 12:40:49;;;;;;;1.75;0.17;;;5.40;78.80;;;;;;6217047;23;20040;-86
2023/02/26 12:43:49;;;;;;;3.35;0.20;;;5.40;78.00;;;;;;6216632;23;20007;-86
2023/02/26 12:46:20;;;;;;;1.27;0.10;;;5.50;78.60;;;;;;6216561;23;20015;-86
2023/02/26 12:49:07;;;;;;;0.55;0.05;;;5.50;78.20;;;;;;6217023;23;20012;-86
2023/02/26 12:51:53;;;;;;;2.00;0.20;;;5.50;76.70;;;;;;6216781;23;20008;-86
2023/02/26 12:54:56;;;;;;;1.33;0.20;;;5.50;78.20;;;;;;6216603;23;20007;-87
2023/02/26 12:57:39;;;;;;;;;;;5.50;77.50;;;;;;6243091;22;20006;-86
2023/02/26 13:00:13;;;;;;;;;;;5.50;77.70;;;;;;6243944;23;19940;-87
2023/02/26 13:03:11;;;;;;;2.97;0.20;;;5.60;78.30;;;;;;6243520;23;20372;-86
2023/02/26 13:06:42;;;;;;;2.58;0.28;;;5.60;78.10;;;;;;6216088;23;20481;-86
2023/02/26 13:09:37;;;;;;;1.80;0.20;;;5.60;78.90;;;;;;6069543;23;20097;-87
2023/02/26 13:12:19;;;;;;;1.75;0.20;;;5.70;78.60;;;;;;6094975;23;20074;-87
2023/02/26 13:15:04;;;;;;;0.40;0.10;;;5.70;79.80;;;;;;6194331;23;20078;-86
2023/02/26 13:17:55;;;;;;;1.25;0.20;;;5.80;78.80;;;;;;6247026;23;20001;-86
2023/02/26 13:20:25;;;;;;;0.63;0.08;;;5.80;76.40;;;;;;6245627;23;20012;-87